Time;durP1;ratioP1;P1;durP2;ratioP2;P2;SDS_P1;SDS_P2;PMS_P1;PMS_P2;Temp;Humidity;BMP_temperature;BMP_pressure;BME280_temperature;BME280_humidity;BME280_pressure;Samples;Min_cycle;Max_cycle;Signal;HPM_P1;HPM_P2
2023/07/22 00:04:10;;;;;;;;;;;;;;;16.39;51.68652;101422.7;;;;-68
2023/07/22 00:09:10;;;;;;;;;;;;;;;16.35;51.68359;101422.8;;;;-69
2023/07/22 00:11:11;;;;;;;0.2;0;;;;;;;;;;;;;-69
2023/07/22 00:14:10;;;;;;;;;;;;;;;16.34;51.68066;101416;;;;-67
2023/07/22 00:19:10;;;;;;;;;;;;;;;16.35;51.73828;101417.6;;;;-69
2023/07/22 00:24:10;;;;;;;;;;;;;;;16.29;51.86719;101414.5;;;;-67
2023/07/22 00:29:10;;;;;;;;;;;;;;;16.26;51.91992;101409.9;;;;-67
2023/07/22 00:34:10;;;;;;;;;;;;;;;16.22;51.9834;101408.4;;;;-69
2023/07/22 00:39:11;;;;;;;;;;;;;;;16.17;52.1582;101405.4;;;;-68
2023/07/22 00:41:14;;;;;;;0.2;0;;;;;;;;;;;;;-69
2023/07/22 00:44:10;;;;;;;;;;;;;;;16.15;52.90234;101404.1;;;;-68
2023/07/22 00:49:11;;;;;;;;;;;;;;;16.12;52.56934;101400.9;;;;-69
2023/07/22 00:54:10;;;;;;;;;;;;;;;16.09;53.0293;101397.4;;;;-68
2023/07/22 00:59:10;;;;;;;;;;;;;;;16.06;53.12793;101392;;;;-68
2023/07/22 01:04:11;;;;;;;;;;;;;;;16.06;53.43359;101385.9;;;;-67
2023/07/22 01:09:13;;;;;;;;;;;;;;;16.05;53.40918;101382.3;;;;-68
2023/07/22 01:11:16;;;;;;;0.2;0;;;;;;;;;;;;;-68
2023/07/22 01:14:10;;;;;;;;;;;;;;;16.04;53.1377;101379.2;;;;-68
2023/07/22 01:19:11;;;;;;;;;;;;;;;16.02;53.28223;101374.6;;;;-67
2023/07/22 01:24:10;;;;;;;;;;;;;;;15.98;53.54785;101371.1;;;;-68
2023/07/22 01:29:12;;;;;;;;;;;;;;;15.93;53.32617;101359.6;;;;-68
2023/07/22 01:34:10;;;;;;;;;;;;;;;15.89;53.60449;101361.9;;;;-69
2023/07/22 01:39:10;;;;;;;;;;;;;;;15.88;53.40137;101359.3;;;;-68
2023/07/22 01:41:18;;;;;;;0.2;0.1;;;;;;;;;;;;;-68
2023/07/22 01:44:10;;;;;;;;;;;;;;;15.9;53.72949;101358.3;;;;-68
2023/07/22 01:49:13;;;;;;;;;;;;;;;15.89;54.7793;101355.4;;;;-69
2023/07/22 01:54:10;;;;;;;;;;;;;;;15.9;54.21582;101356.8;;;;-69
2023/07/22 01:59:10;;;;;;;;;;;;;;;15.9;54.94922;101350.9;;;;-69
2023/07/22 02:04:10;;;;;;;;;;;;;;;15.91;54.2168;101346.8;;;;-67
2023/07/22 02:09:13;;;;;;;;;;;;;;;15.93;54.83984;101344;;;;-68
2023/07/22 02:11:21;;;;;;;0.2;0.1;;;;;;;;;;;;;-68
2023/07/22 02:14:10;;;;;;;;;;;;;;;15.95;54.53809;101341;;;;-68
2023/07/22 02:19:11;;;;;;;;;;;;;;;15.95;55.01172;101338.8;;;;-68
2023/07/22 02:24:11;;;;;;;;;;;;;;;15.97;54.49512;101333.2;;;;-68
2023/07/22 02:29:12;;;;;;;;;;;;;;;15.98;54.51855;101332.1;;;;-69
2023/07/22 02:34:10;;;;;;;;;;;;;;;15.96;55.28418;101327.2;;;;-69
2023/07/22 02:39:10;;;;;;;;;;;;;;;15.99;55.46875;101322.4;;;;-68
2023/07/22 02:41:23;;;;;;;0.2;0;;;;;;;;;;;;;-67
2023/07/22 02:44:10;;;;;;;;;;;;;;;15.97;55.63477;101322.5;;;;-68
2023/07/22 02:49:10;;;;;;;;;;;;;;;15.98;55.19727;101322.2;;;;-69
2023/07/22 02:54:10;;;;;;;;;;;;;;;15.95;55.79199;101315.7;;;;-68
2023/07/22 02:59:10;;;;;;;;;;;;;;;15.93;55.22363;101315;;;;-68
2023/07/22 03:04:12;;;;;;;;;;;;;;;15.89;55.45605;101319.6;;;;-69
2023/07/22 03:09:11;;;;;;;;;;;;;;;15.87;55.33984;101322;;;;-70
2023/07/22 03:11:26;;;;;;;0.3;0.2;;;;;;;;;;;;;-68
2023/07/22 03:14:10;;;;;;;;;;;;;;;15.84;55.46094;101330.5;;;;-69
2023/07/22 03:19:13;;;;;;;;;;;;;;;15.78;55.72461;101329.4;;;;-68
2023/07/22 03:24:10;;;;;;;;;;;;;;;15.73;55.48047;101328.9;;;;-68
2023/07/22 03:29:10;;;;;;;;;;;;;;;15.67;56.25195;101325.2;;;;-68
2023/07/22 03:34:10;;;;;;;;;;;;;;;15.6;56.20898;101330.8;;;;-67
2023/07/22 03:39:10;;;;;;;;;;;;;;;15.52;56.39063;101329.8;;;;-67
2023/07/22 03:41:28;;;;;;;0.2;0;;;;;;;;;;;;;-68
2023/07/22 03:44:11;;;;;;;;;;;;;;;15.5;57.01855;101326.6;;;;-69
2023/07/22 03:49:10;;;;;;;;;;;;;;;15.43;57.2334;101329.5;;;;-67
2023/07/22 03:54:10;;;;;;;;;;;;;;;15.45;57.24902;101337.6;;;;-68
2023/07/22 03:59:10;;;;;;;;;;;;;;;15.43;57.52734;101335.7;;;;-68
2023/07/22 04:04:10;;;;;;;;;;;;;;;15.41;56.79297;101337.3;;;;-68
2023/07/22 04:09:11;;;;;;;;;;;;;;;15.39;56.67676;101336.2;;;;-69
2023/07/22 04:11:30;;;;;;;0.2;0;;;;;;;;;;;;;-70
2023/07/22 04:14:12;;;;;;;;;;;;;;;15.38;56.85742;101335.8;;;;-67
2023/07/22 04:19:10;;;;;;;;;;;;;;;15.36;56.95605;101332.6;;;;-68
2023/07/22 04:24:10;;;;;;;;;;;;;;;15.4;56.95996;101328.6;;;;-68
2023/07/22 04:29:11;;;;;;;;;;;;;;;15.39;56.83496;101330.7;;;;-69
2023/07/22 04:34:12;;;;;;;;;;;;;;;15.42;56.69336;101332.3;;;;-68
2023/07/22 04:39:10;;;;;;;;;;;;;;;15.47;56.63086;101329.6;;;;-71
2023/07/22 04:41:32;;;;;;;0.2;0.1;;;;;;;;;;;;;-69
2023/07/22 04:44:10;;;;;;;;;;;;;;;15.51;56.50098;101327.9;;;;-68
2023/07/22 04:49:10;;;;;;;;;;;;;;;15.58;57.10742;101324.8;;;;-68
2023/07/22 04:54:10;;;;;;;;;;;;;;;15.64;56.73242;101321.3;;;;-68
2023/07/22 04:59:11;;;;;;;;;;;;;;;15.67;56.9834;101317.4;;;;-69
2023/07/22 05:04:10;;;;;;;;;;;;;;;15.72;56.5498;101313.5;;;;-68
2023/07/22 05:09:10;;;;;;;;;;;;;;;15.77;57.07715;101312.4;;;;-68
2023/07/22 05:11:34;;;;;;;0.2;0;;;;;;;;;;;;;-69
2023/07/22 05:14:10;;;;;;;;;;;;;;;15.84;57.18652;101319.6;;;;-68
2023/07/22 05:19:10;;;;;;;;;;;;;;;15.89;57.03613;101318.6;;;;-67
2023/07/22 05:24:10;;;;;;;;;;;;;;;15.95;57.39258;101313.2;;;;-69
2023/07/22 05:29:10;;;;;;;;;;;;;;;16.03;57.49219;101313.8;;;;-68
2023/07/22 05:34:10;;;;;;;;;;;;;;;16.09;57.30859;101322.4;;;;-69
2023/07/22 05:39:10;;;;;;;;;;;;;;;16.13;57.08887;101326.5;;;;-68
2023/07/22 05:41:36;;;;;;;0.2;0.1;;;;;;;;;;;;;-69
2023/07/22 05:44:10;;;;;;;;;;;;;;;16.16;57.49902;101322.3;;;;-69
2023/07/22 05:49:10;;;;;;;;;;;;;;;16.17;57.36426;101320.1;;;;-69
2023/07/22 05:54:13;;;;;;;;;;;;;;;16.23;56.74023;101322.3;;;;-68
2023/07/22 05:59:10;;;;;;;;;;;;;;;16.28;56.49902;101318.7;;;;-68
2023/07/22 06:04:10;;;;;;;;;;;;;;;16.41;56.77539;101317.8;;;;-69
2023/07/22 06:09:10;;;;;;;;;;;;;;;16.52;56.65234;101315.5;;;;-69
2023/07/22 06:11:38;;;;;;;0.2;0;;;;;;;;;;;;;-69
2023/07/22 06:14:12;;;;;;;;;;;;;;;16.63;56.71289;101315.5;;;;-70
2023/07/22 06:19:10;;;;;;;;;;;;;;;16.7;56.99219;101313.3;;;;-69
2023/07/22 06:24:10;;;;;;;;;;;;;;;16.74;57.19043;101314.3;;;;-71
2023/07/22 06:29:10;;;;;;;;;;;;;;;16.8;58.1123;101306.4;;;;-71
2023/07/22 06:34:10;;;;;;;;;;;;;;;16.85;58.52637;101299.9;;;;-70
2023/07/22 06:39:10;;;;;;;;;;;;;;;16.93;58.26465;101302.5;;;;-73
2023/07/22 06:41:40;;;;;;;0.2;0.1;;;;;;;;;;;;;-72
2023/07/22 06:44:10;;;;;;;;;;;;;;;17.03;58.44922;101299.1;;;;-71
2023/07/22 06:49:10;;;;;;;;;;;;;;;17.13;60.1123;101306.6;;;;-70
2023/07/22 06:54:10;;;;;;;;;;;;;;;17.23;59.99023;101313.5;;;;-69
2023/07/22 06:59:10;;;;;;;;;;;;;;;17.24;60.97461;101306.2;;;;-68
2023/07/22 07:04:10;;;;;;;;;;;;;;;17.27;60.08594;101304.2;;;;-68
2023/07/22 07:09:10;;;;;;;;;;;;;;;17.3;60.57715;101300.2;;;;-69
2023/07/22 07:11:43;;;;;;;0.2;0.1;;;;;;;;;;;;;-69
2023/07/22 07:14:10;;;;;;;;;;;;;;;17.34;60.68262;101299.2;;;;-69
2023/07/22 07:19:10;;;;;;;;;;;;;;;17.35;61.72461;101295.7;;;;-68
2023/07/22 07:24:10;;;;;;;;;;;;;;;17.36;62.07617;101299.5;;;;-69
2023/07/22 07:29:10;;;;;;;;;;;;;;;17.36;63.05957;101295;;;;-69
2023/07/22 07:34:10;;;;;;;;;;;;;;;17.39;63.45703;101291.5;;;;-69
2023/07/22 07:39:10;;;;;;;;;;;;;;;17.37;64.59473;101286.7;;;;-69
2023/07/22 07:41:45;;;;;;;0.2;0.1;;;;;;;;;;;;;-69
2023/07/22 07:44:10;;;;;;;;;;;;;;;17.36;64.49316;101292.1;;;;-69
2023/07/22 07:49:10;;;;;;;;;;;;;;;17.41;63.73242;101290.5;;;;-68
2023/07/22 07:54:10;;;;;;;;;;;;;;;17.47;62.21582;101290.3;;;;-69
2023/07/22 07:59:10;;;;;;;;;;;;;;;17.52;62.34668;101290.8;;;;-69
2023/07/22 08:04:10;;;;;;;;;;;;;;;17.6;62.3125;101281.9;;;;-68
2023/07/22 08:09:10;;;;;;;;;;;;;;;17.68;66.75391;101281.6;;;;-69
2023/07/22 08:11:48;;;;;;;0.4;0.2;;;;;;;;;;;;;-69
2023/07/22 08:14:10;;;;;;;;;;;;;;;17.66;66.67188;101288.1;;;;-68
2023/07/22 08:19:10;;;;;;;;;;;;;;;17.61;67.11523;101269.7;;;;-69
2023/07/22 08:24:10;;;;;;;;;;;;;;;17.53;67.33008;101271.8;;;;-69
2023/07/22 08:29:10;;;;;;;;;;;;;;;17.48;67.47949;101279.5;;;;-69
2023/07/22 08:34:12;;;;;;;;;;;;;;;17.44;67.67773;101279.1;;;;-69
2023/07/22 08:39:10;;;;;;;;;;;;;;;17.39;66.42773;101286.4;;;;-72
2023/07/22 08:41:54;;;;;;;0.5;0.4;;;;;;;;;;;;;-71
2023/07/22 08:44:12;;;;;;;;;;;;;;;17.31;66.31543;101272.7;;;;-70
2023/07/22 08:49:12;;;;;;;;;;;;;;;17.3;68.07422;101273.3;;;;-70
2023/07/22 08:54:10;;;;;;;;;;;;;;;17.36;68.78125;101271.5;;;;-70
2023/07/22 08:59:12;;;;;;;;;;;;;;;17.57;71.54199;101264.7;;;;-70
2023/07/22 09:04:10;;;;;;;;;;;;;;;17.87;76.75391;101263.6;;;;-71
2023/07/22 09:09:11;;;;;;;;;;;;;;;18.12;77.16797;101266;;;;-70
2023/07/22 09:11:54;;;;;;;0.2;0;;;;;;;;;;;;;-71
2023/07/22 09:14:14;;;;;;;;;;;;;;;18.23;74.09766;101262.4;;;;-70
2023/07/22 09:19:11;;;;;;;;;;;;;;;18.33;75.57129;101268.7;;;;-70
2023/07/22 09:24:20;;;;;;;;;;;;;;;18.41;73.85742;101271.4;;;;-70
2023/07/22 09:29:10;;;;;;;;;;;;;;;18.39;71.6543;101278.4;;;;-72
2023/07/22 09:34:19;;;;;;;;;;;;;;;18.45;70.81445;101281.2;;;;-69
2023/07/22 09:39:10;;;;;;;;;;;;;;;18.47;70.68164;101275.5;;;;-68
2023/07/22 09:41:58;;;;;;;0.2;0;;;;;;;;;;;;;-69
2023/07/22 09:44:13;;;;;;;;;;;;;;;18.48;69.37305;101284.9;;;;-69
2023/07/22 09:49:11;;;;;;;;;;;;;;;18.56;69.18262;101284.1;;;;-69
2023/07/22 09:54:10;;;;;;;;;;;;;;;18.63;68.79688;101284.2;;;;-69
2023/07/22 09:59:10;;;;;;;;;;;;;;;18.72;67.4541;101282.5;;;;-69
2023/07/22 10:04:11;;;;;;;;;;;;;;;18.75;66.46094;101281.5;;;;-70
2023/07/22 10:09:28;;;;;;;;;;;;;;;18.77;65.95703;101269.7;;;;-71
2023/07/22 10:11:59;;;;;;;0.2;0.1;;;;;;;;;;;;;-68
2023/07/22 10:14:12;;;;;;;;;;;;;;;18.85;65.59375;101285.8;;;;-69
2023/07/22 10:19:10;;;;;;;;;;;;;;;18.96;65.41602;101287.8;;;;-68
2023/07/22 10:24:10;;;;;;;;;;;;;;;19.11;64.39648;101294.3;;;;-68
2023/07/22 10:29:11;;;;;;;;;;;;;;;19.17;63.42969;101294.7;;;;-67
2023/07/22 10:34:10;;;;;;;;;;;;;;;19.26;62.86328;101295.4;;;;-70
2023/07/22 10:39:10;;;;;;;;;;;;;;;19.47;62.31543;101292.8;;;;-68
2023/07/22 10:42:06;;;;;;;0.2;0.1;;;;;;;;;;;;;-71
2023/07/22 10:44:10;;;;;;;;;;;;;;;19.79;61.64258;101288.7;;;;-68
2023/07/22 10:49:20;;;;;;;;;;;;;;;20.03;60.43652;101296.3;;;;-69
2023/07/22 10:54:14;;;;;;;;;;;;;;;20.15;59.39453;101291.4;;;;-67
2023/07/22 10:59:13;;;;;;;;;;;;;;;20.17;58.88672;101294.5;;;;-69
2023/07/22 11:04:15;;;;;;;;;;;;;;;20.18;58.87598;101293;;;;-70
2023/07/22 11:09:10;;;;;;;;;;;;;;;20.16;58.85059;101293.3;;;;-71
2023/07/22 11:12:05;;;;;;;0.2;0;;;;;;;;;;;;;-69
2023/07/22 11:14:24;;;;;;;;;;;;;;;20.13;58.21973;101297.8;;;;-68
2023/07/22 11:19:11;;;;;;;;;;;;;;;20.14;57.98242;101292.1;;;;-69
2023/07/22 11:24:11;;;;;;;;;;;;;;;20.14;57.9375;101279.2;;;;-70
2023/07/22 11:29:11;;;;;;;;;;;;;;;20.28;57.59082;101277.6;;;;-69
2023/07/22 11:34:11;;;;;;;;;;;;;;;20.46;57.18066;101273.2;;;;-70
2023/07/22 11:39:14;;;;;;;;;;;;;;;20.47;56.24805;101276.9;;;;-70
2023/07/22 11:42:07;;;;;;;0.2;0;;;;;;;;;;;;;-70
2023/07/22 11:44:12;;;;;;;;;;;;;;;20.52;56.44727;101272;;;;-68
2023/07/22 11:49:10;;;;;;;;;;;;;;;20.6;56.05859;101273.9;;;;-69
2023/07/22 11:54:12;;;;;;;;;;;;;;;20.76;54.43652;101264.7;;;;-72
2023/07/22 11:59:10;;;;;;;;;;;;;;;20.95;54.05957;101258.7;;;;-71
2023/07/22 12:04:15;;;;;;;;;;;;;;;21.02;53.81641;101259.6;;;;-69
2023/07/22 12:09:10;;;;;;;;;;;;;;;20.97;53.55957;101265.3;;;;-69
2023/07/22 12:12:11;;;;;;;0.2;0;;;;;;;;;;;;;-68
2023/07/22 12:14:15;;;;;;;;;;;;;;;21;53.23047;101274.4;;;;-68
2023/07/22 12:19:11;;;;;;;;;;;;;;;21.06;53.11328;101255;;;;-68
2023/07/22 12:24:10;;;;;;;;;;;;;;;21.1;52.88867;101280.9;;;;-69
2023/07/22 12:29:11;;;;;;;;;;;;;;;21.02;52.63965;101277.9;;;;-69
2023/07/22 12:34:10;;;;;;;;;;;;;;;20.96;52.66797;101272.6;;;;-70
2023/07/22 12:39:10;;;;;;;;;;;;;;;20.97;52.69141;101278.7;;;;-69
2023/07/22 12:42:13;;;;;;;0.2;0;;;;;;;;;;;;;-68
2023/07/22 12:44:10;;;;;;;;;;;;;;;20.92;52.7998;101274.9;;;;-68
2023/07/22 12:49:10;;;;;;;;;;;;;;;20.99;53.11621;101271.7;;;;-67
2023/07/22 12:54:10;;;;;;;;;;;;;;;21.09;53.25391;101272.2;;;;-68
2023/07/22 12:59:10;;;;;;;;;;;;;;;21.07;53.10352;101265.1;;;;-68
2023/07/22 13:04:10;;;;;;;;;;;;;;;20.97;53.14844;101272;;;;-68
2023/07/22 13:09:10;;;;;;;;;;;;;;;20.97;53.65137;101267.4;;;;-68
2023/07/22 13:12:17;;;;;;;0.2;0;;;;;;;;;;;;;-68
2023/07/22 13:14:10;;;;;;;;;;;;;;;20.97;53.68555;101266.6;;;;-69
2023/07/22 13:19:10;;;;;;;;;;;;;;;20.8;53.73242;101269.8;;;;-74
2023/07/22 13:24:10;;;;;;;;;;;;;;;20.66;53.32813;101270.9;;;;-67
2023/07/22 13:29:12;;;;;;;;;;;;;;;20.54;53.73535;101266.9;;;;-69
2023/07/22 13:34:10;;;;;;;;;;;;;;;20.46;53.875;101264.2;;;;-68
2023/07/22 13:39:10;;;;;;;;;;;;;;;20.51;53.60645;101256.1;;;;-71
2023/07/22 13:42:20;;;;;;;0.2;0.1;;;;;;;;;;;;;-70
2023/07/22 13:44:10;;;;;;;;;;;;;;;20.56;53.5791;101260;;;;-71
2023/07/22 13:49:10;;;;;;;;;;;;;;;20.65;53.51074;101251.5;;;;-69
2023/07/22 13:54:11;;;;;;;;;;;;;;;20.71;54.01758;101246.2;;;;-69
2023/07/22 13:59:10;;;;;;;;;;;;;;;20.68;54.2998;101257.1;;;;-70
2023/07/22 14:04:10;;;;;;;;;;;;;;;20.62;54.40723;101257;;;;-69
2023/07/22 14:09:10;;;;;;;;;;;;;;;20.64;54.45605;101245;;;;-69
2023/07/22 14:12:23;;;;;;;0.2;0;;;;;;;;;;;;;-69
2023/07/22 14:14:10;;;;;;;;;;;;;;;20.75;54.34277;101245;;;;-69
2023/07/22 14:19:10;;;;;;;;;;;;;;;20.85;54.00098;101250.7;;;;-69
2023/07/22 14:24:10;;;;;;;;;;;;;;;20.8;53.87012;101247.5;;;;-70
2023/07/22 14:29:10;;;;;;;;;;;;;;;20.84;53.86426;101239.9;;;;-68
2023/07/22 14:34:10;;;;;;;;;;;;;;;20.92;53.62207;101238.9;;;;-69
2023/07/22 14:39:11;;;;;;;;;;;;;;;20.94;53.31641;101228.3;;;;-68
2023/07/22 14:42:26;;;;;;;0.2;0;;;;;;;;;;;;;-69
2023/07/22 14:44:10;;;;;;;;;;;;;;;20.87;53.41113;101226.6;;;;-69
2023/07/22 14:49:11;;;;;;;;;;;;;;;20.78;53.65039;101223.5;;;;-70
2023/07/22 14:54:10;;;;;;;;;;;;;;;20.8;53.19629;101226.2;;;;-69
2023/07/22 14:59:12;;;;;;;;;;;;;;;20.84;53.24707;101225.5;;;;-69
2023/07/22 15:04:10;;;;;;;;;;;;;;;20.8;53.21973;101229.6;;;;-68
2023/07/22 15:09:10;;;;;;;;;;;;;;;20.69;53.37793;101222.1;;;;-70
2023/07/22 15:12:30;;;;;;;0.2;0.1;;;;;;;;;;;;;-69
2023/07/22 15:14:10;;;;;;;;;;;;;;;20.54;53.67969;101217.1;;;;-69
2023/07/22 15:19:10;;;;;;;;;;;;;;;20.45;53.96387;101219.7;;;;-69
2023/07/22 15:24:10;;;;;;;;;;;;;;;20.42;54.26855;101216;;;;-69
2023/07/22 15:29:11;;;;;;;;;;;;;;;20.46;54.29688;101202.3;;;;-70
2023/07/22 15:34:10;;;;;;;;;;;;;;;20.49;54.6084;101205.2;;;;-71
2023/07/22 15:39:10;;;;;;;;;;;;;;;20.37;55.47168;101208;;;;-69
2023/07/22 15:42:33;;;;;;;0.2;0;;;;;;;;;;;;;-70
2023/07/22 15:44:10;;;;;;;;;;;;;;;20.25;56.13965;101205.6;;;;-69
2023/07/22 15:49:10;;;;;;;;;;;;;;;20.27;56.34863;101200.2;;;;-69
2023/07/22 15:54:10;;;;;;;;;;;;;;;20.2;56.93164;101194.7;;;;-69
2023/07/22 15:59:10;;;;;;;;;;;;;;;20.09;57.11133;101179.6;;;;-73
2023/07/22 16:04:14;;;;;;;;;;;;;;;20.15;57.01563;101177.9;;;;-73
2023/07/22 16:09:10;;;;;;;;;;;;;;;20.06;56.70898;101173.2;;;;-71
2023/07/22 16:12:36;;;;;;;0.2;0;;;;;;;;;;;;;-72
2023/07/22 16:14:14;;;;;;;;;;;;;;;19.94;56.3623;101167.8;;;;-71
2023/07/22 16:19:10;;;;;;;;;;;;;;;19.91;56.05176;101166.8;;;;-73
2023/07/22 16:24:10;;;;;;;;;;;;;;;19.94;55.64648;101178.9;;;;-69
2023/07/22 16:29:10;;;;;;;;;;;;;;;20.01;55.49512;101168.8;;;;-69
2023/07/22 16:34:10;;;;;;;;;;;;;;;19.94;55.55566;101168.5;;;;-70
2023/07/22 16:39:10;;;;;;;;;;;;;;;19.91;55.49414;101169.7;;;;-72
2023/07/22 16:42:42;;;;;;;0.2;0;;;;;;;;;;;;;-73
2023/07/22 16:44:10;;;;;;;;;;;;;;;19.96;55.31738;101162.1;;;;-72
2023/07/22 16:49:11;;;;;;;;;;;;;;;19.84;55.46191;101163.5;;;;-71
2023/07/22 16:54:10;;;;;;;;;;;;;;;19.74;55.50781;101153.5;;;;-71
2023/07/22 16:59:10;;;;;;;;;;;;;;;19.71;55.44629;101162;;;;-71
2023/07/22 17:04:10;;;;;;;;;;;;;;;19.71;55.57031;101154.1;;;;-70
2023/07/22 17:09:11;;;;;;;;;;;;;;;19.72;55.70996;101154.3;;;;-70
2023/07/22 17:12:42;;;;;;;0.2;0.1;;;;;;;;;;;;;-69
2023/07/22 17:14:10;;;;;;;;;;;;;;;19.68;56;101146.6;;;;-72
2023/07/22 17:19:10;;;;;;;;;;;;;;;19.65;56.46387;101142.1;;;;-72
2023/07/22 17:24:10;;;;;;;;;;;;;;;19.66;56.45313;101137.6;;;;-68
2023/07/22 17:29:10;;;;;;;;;;;;;;;19.66;56.14453;101123.3;;;;-67
2023/07/22 17:34:10;;;;;;;;;;;;;;;19.56;57.85059;101136.1;;;;-68
2023/07/22 17:39:10;;;;;;;;;;;;;;;19.51;56.79785;101123.5;;;;-67
2023/07/22 17:42:45;;;;;;;0.3;0.1;;;;;;;;;;;;;-69
2023/07/22 17:44:10;;;;;;;;;;;;;;;19.45;57.4043;101115.9;;;;-69
2023/07/22 17:49:10;;;;;;;;;;;;;;;19.32;58.21777;101121.7;;;;-69
2023/07/22 17:54:10;;;;;;;;;;;;;;;19.17;58.94727;101125.3;;;;-68
2023/07/22 17:59:10;;;;;;;;;;;;;;;19.04;59.80469;101128.3;;;;-69
2023/07/22 18:04:10;;;;;;;;;;;;;;;18.91;59.63965;101130.9;;;;-67
2023/07/22 18:09:10;;;;;;;;;;;;;;;18.78;60.00684;101128.8;;;;-70
2023/07/22 18:12:48;;;;;;;0.2;0;;;;;;;;;;;;;-68
2023/07/22 18:14:10;;;;;;;;;;;;;;;18.67;59.94531;101129.3;;;;-69
2023/07/22 18:19:10;;;;;;;;;;;;;;;18.54;61.52832;101129;;;;-68
2023/07/22 18:24:10;;;;;;;;;;;;;;;18.44;61.67188;101127.5;;;;-69
2023/07/22 18:29:10;;;;;;;;;;;;;;;18.32;62.3584;101122.5;;;;-68
2023/07/22 18:34:10;;;;;;;;;;;;;;;18.23;62.79688;101119.5;;;;-68
2023/07/22 18:39:10;;;;;;;;;;;;;;;18.14;63.50879;101118.8;;;;-67
2023/07/22 18:42:51;;;;;;;0.2;0;;;;;;;;;;;;;-69
2023/07/22 18:44:10;;;;;;;;;;;;;;;18.05;63.42871;101109.1;;;;-70
2023/07/22 18:49:10;;;;;;;;;;;;;;;17.92;65.89648;101108.4;;;;-68
2023/07/22 18:54:10;;;;;;;;;;;;;;;17.84;65.5791;101111.2;;;;-70
2023/07/22 18:59:10;;;;;;;;;;;;;;;17.76;65.63477;101107.6;;;;-68
2023/07/22 19:04:10;;;;;;;;;;;;;;;17.65;66.93066;101103;;;;-69
2023/07/22 19:09:10;;;;;;;;;;;;;;;17.53;68.1084;101113.5;;;;-69
2023/07/22 19:12:54;;;;;;;0.2;0;;;;;;;;;;;;;-71
2023/07/22 19:14:10;;;;;;;;;;;;;;;17.47;68.82129;101105.8;;;;-70
2023/07/22 19:19:10;;;;;;;;;;;;;;;17.41;69.36328;101097.5;;;;-69
2023/07/22 19:24:10;;;;;;;;;;;;;;;17.33;69.04785;101093.8;;;;-70
2023/07/22 19:29:10;;;;;;;;;;;;;;;17.28;70.21191;101086.6;;;;-69
2023/07/22 19:34:10;;;;;;;;;;;;;;;17.23;70.42969;101080.4;;;;-68
2023/07/22 19:39:10;;;;;;;;;;;;;;;17.16;70.125;101079.1;;;;-70
2023/07/22 19:42:56;;;;;;;0.2;0.1;;;;;;;;;;;;;-70
2023/07/22 19:44:10;;;;;;;;;;;;;;;17.1;70.94922;101076.5;;;;-69
2023/07/22 19:49:10;;;;;;;;;;;;;;;17.04;70.61328;101069.5;;;;-68
2023/07/22 19:54:10;;;;;;;;;;;;;;;16.94;71.87988;101067.4;;;;-68
2023/07/22 19:59:10;;;;;;;;;;;;;;;16.91;72.04395;101063.9;;;;-68
2023/07/22 20:04:10;;;;;;;;;;;;;;;16.87;71.77734;101069.6;;;;-70
2023/07/22 20:09:10;;;;;;;;;;;;;;;16.83;71.96484;101060.7;;;;-70
2023/07/22 20:12:59;;;;;;;0.3;0.2;;;;;;;;;;;;;-70
2023/07/22 20:14:10;;;;;;;;;;;;;;;16.8;72.90332;101067.7;;;;-69
2023/07/22 20:19:10;;;;;;;;;;;;;;;16.77;73.02246;101070.6;;;;-70
2023/07/22 20:24:10;;;;;;;;;;;;;;;16.73;72.65723;101074.5;;;;-70
2023/07/22 20:29:10;;;;;;;;;;;;;;;16.67;73.88379;101072.7;;;;-71
2023/07/22 20:34:10;;;;;;;;;;;;;;;16.68;74.33594;101064.2;;;;-71
2023/07/22 20:39:10;;;;;;;;;;;;;;;16.66;73.96094;101059.6;;;;-69
2023/07/22 20:43:01;;;;;;;0.3;0.2;;;;;;;;;;;;;-68
2023/07/22 20:44:10;;;;;;;;;;;;;;;16.65;73.84668;101051.1;;;;-69
2023/07/22 20:49:10;;;;;;;;;;;;;;;16.58;75.17285;101047.2;;;;-71
2023/07/22 20:54:10;;;;;;;;;;;;;;;16.61;74.15527;101042.9;;;;-69
2023/07/22 20:59:10;;;;;;;;;;;;;;;16.61;75.00977;101052.4;;;;-70
2023/07/22 21:04:10;;;;;;;;;;;;;;;16.56;75.33691;101047.5;;;;-69
2023/07/22 21:09:10;;;;;;;;;;;;;;;16.51;76.85547;101039.2;;;;-70
2023/07/22 21:13:03;;;;;;;0.2;0.1;;;;;;;;;;;;;-70
2023/07/22 21:14:10;;;;;;;;;;;;;;;16.47;77.07324;101029.4;;;;-70
2023/07/22 21:19:10;;;;;;;;;;;;;;;16.41;77.05273;101024.4;;;;-69
2023/07/22 21:24:12;;;;;;;;;;;;;;;16.43;77.01074;101017.4;;;;-69
2023/07/22 21:29:10;;;;;;;;;;;;;;;16.39;77.48633;101014.9;;;;-68
2023/07/22 21:34:10;;;;;;;;;;;;;;;16.35;77.33496;101009.9;;;;-68
2023/07/22 21:39:10;;;;;;;;;;;;;;;16.34;77.39941;100993.7;;;;-69
2023/07/22 21:43:09;;;;;;;0.2;0;;;;;;;;;;;;;-70
2023/07/22 21:44:10;;;;;;;;;;;;;;;16.33;76.60059;100987.4;;;;-69
2023/07/22 21:49:10;;;;;;;;;;;;;;;16.34;77.63379;100983.8;;;;-69
2023/07/22 21:54:10;;;;;;;;;;;;;;;16.25;78.39453;100974.9;;;;-69
2023/07/22 21:59:11;;;;;;;;;;;;;;;16.29;78.15234;100969;;;;-69
2023/07/22 22:04:10;;;;;;;;;;;;;;;16.25;77.7998;100973.7;;;;-69
2023/07/22 22:09:10;;;;;;;;;;;;;;;16.27;78.09375;100962.4;;;;-69
2023/07/22 22:13:08;;;;;;;0.2;0.1;;;;;;;;;;;;;-69
2023/07/22 22:14:10;;;;;;;;;;;;;;;16.27;77.20703;100969.8;;;;-68
2023/07/22 22:19:10;;;;;;;;;;;;;;;16.23;77.58203;100959.7;;;;-71
2023/07/22 22:24:10;;;;;;;;;;;;;;;16.23;78.53516;100951.7;;;;-69
2023/07/22 22:29:10;;;;;;;;;;;;;;;16.2;78.49707;100946;;;;-70
2023/07/22 22:34:11;;;;;;;;;;;;;;;16.2;77.91406;100941.9;;;;-69
2023/07/22 22:39:10;;;;;;;;;;;;;;;16.17;78.61426;100936.3;;;;-70
2023/07/22 22:43:10;;;;;;;0.2;0.1;;;;;;;;;;;;;-69
2023/07/22 22:44:10;;;;;;;;;;;;;;;16.12;77.9668;100927.8;;;;-69
2023/07/22 22:49:10;;;;;;;;;;;;;;;16.15;78.26367;100933.5;;;;-69
2023/07/22 22:54:10;;;;;;;;;;;;;;;16.14;77.72363;100926.9;;;;-69
2023/07/22 22:59:10;;;;;;;;;;;;;;;16.11;78.20117;100934.6;;;;-69
2023/07/22 23:04:10;;;;;;;;;;;;;;;16.09;79.08203;100925;;;;-70
2023/07/22 23:09:10;;;;;;;;;;;;;;;16.02;79.77637;100920;;;;-68
2023/07/22 23:13:12;;;;;;;0.2;0;;;;;;;;;;;;;-69
2023/07/22 23:14:10;;;;;;;;;;;;;;;16.02;79.57324;100914.7;;;;-70
2023/07/22 23:19:11;;;;;;;;;;;;;;;15.95;80.25781;100915.8;;;;-69
2023/07/22 23:24:10;;;;;;;;;;;;;;;15.91;80.18262;100910.3;;;;-69
2023/07/22 23:29:10;;;;;;;;;;;;;;;15.93;79.9375;100909.4;;;;-70
2023/07/22 23:34:10;;;;;;;;;;;;;;;15.84;81.27734;100894.3;;;;-69
2023/07/22 23:39:10;;;;;;;;;;;;;;;15.82;81.35254;100888.7;;;;-70
2023/07/22 23:43:15;;;;;;;0.2;0;;;;;;;;;;;;;-69
2023/07/22 23:44:10;;;;;;;;;;;;;;;15.82;81.17188;100875.7;;;;-71
2023/07/22 23:49:10;;;;;;;;;;;;;;;15.8;80.40723;100860.2;;;;-70
2023/07/22 23:54:10;;;;;;;;;;;;;;;15.82;79.57227;100852.1;;;;-69
2023/07/22 23:59:10;;;;;;;;;;;;;;;15.79;79.89063;100844;;;;-69
